sensor_id;sensor_type;location;lat;lon;timestamp;pressure;altitude;pressure_sealevel;temperature;humidity
29935;BME280;19905;53.370;-6.314;2022-08-03T00:01:39;100307.16;;;17.74;100.00
29935;BME280;19905;53.370;-6.314;2022-08-03T00:04:11;100321.53;;;17.65;100.00
29935;BME280;19905;53.370;-6.314;2022-08-03T00:06:41;100313.16;;;17.68;100.00
29935;BME280;19905;53.370;-6.314;2022-08-03T00:09:11;100310.84;;;17.65;100.00
29935;BME280;19905;53.370;-6.314;2022-08-03T00:11:39;100307.00;;;17.59;100.00
29935;BME280;19905;53.370;-6.314;2022-08-03T00:14:08;100315.50;;;17.63;100.00
29935;BME280;19905;53.370;-6.314;2022-08-03T00:16:38;100305.72;;;17.55;100.00
29935;BME280;19905;53.370;-6.314;2022-08-03T00:19:07;100319.53;;;17.59;100.00
29935;BME280;19905;53.370;-6.314;2022-08-03T00:21:37;100300.00;;;17.58;100.00
29935;BME280;19905;53.370;-6.314;2022-08-03T00:24:06;100316.19;;;17.65;100.00
29935;BME280;19905;53.370;-6.314;2022-08-03T00:26:38;100299.88;;;17.51;100.00
29935;BME280;19905;53.370;-6.314;2022-08-03T00:29:06;100308.91;;;17.50;100.00
29935;BME280;19905;53.370;-6.314;2022-08-03T00:31:35;100325.88;;;17.58;100.00
29935;BME280;19905;53.370;-6.314;2022-08-03T00:34:18;100306.03;;;17.52;100.00
29935;BME280;19905;53.370;-6.314;2022-08-03T00:37:09;100303.19;;;17.53;100.00
29935;BME280;19905;53.370;-6.314;2022-08-03T00:39:39;100302.53;;;17.60;100.00
29935;BME280;19905;53.370;-6.314;2022-08-03T00:42:09;100293.84;;;17.58;100.00
29935;BME280;19905;53.370;-6.314;2022-08-03T00:44:38;100293.13;;;17.64;100.00
29935;BME280;19905;53.370;-6.314;2022-08-03T00:47:10;100293.84;;;17.58;100.00
29935;BME280;19905;53.370;-6.314;2022-08-03T00:49:40;100302.03;;;17.56;100.00
29935;BME280;19905;53.370;-6.314;2022-08-03T00:52:12;100301.41;;;17.46;100.00
29935;BME280;19905;53.370;-6.314;2022-08-03T00:54:42;100283.03;;;17.51;100.00
29935;BME280;19905;53.370;-6.314;2022-08-03T00:57:11;100290.03;;;17.52;100.00
29935;BME280;19905;53.370;-6.314;2022-08-03T00:59:42;100291.16;;;17.58;100.00
29935;BME280;19905;53.370;-6.314;2022-08-03T01:02:17;100298.22;;;17.50;100.00
29935;BME280;19905;53.370;-6.314;2022-08-03T01:05:06;100286.84;;;17.48;100.00
29935;BME280;19905;53.370;-6.314;2022-08-03T01:07:53;100289.84;;;17.45;100.00
29935;BME280;19905;53.370;-6.314;2022-08-03T01:10:34;100286.41;;;17.37;100.00
29935;BME280;19905;53.370;-6.314;2022-08-03T01:13:16;100286.22;;;17.38;100.00
29935;BME280;19905;53.370;-6.314;2022-08-03T01:16:16;100287.56;;;17.42;100.00
29935;BME280;19905;53.370;-6.314;2022-08-03T01:18:56;100291.25;;;17.33;100.00
29935;BME280;19905;53.370;-6.314;2022-08-03T01:21:39;100293.41;;;17.30;100.00
29935;BME280;19905;53.370;-6.314;2022-08-03T01:24:30;100292.41;;;17.31;100.00
29935;BME280;19905;53.370;-6.314;2022-08-03T01:27:11;100298.59;;;17.31;100.00
29935;BME280;19905;53.370;-6.314;2022-08-03T01:29:59;100299.78;;;17.28;100.00
29935;BME280;19905;53.370;-6.314;2022-08-03T01:32:38;100292.41;;;17.31;100.00
29935;BME280;19905;53.370;-6.314;2022-08-03T01:35:30;100297.25;;;17.35;100.00
29935;BME280;19905;53.370;-6.314;2022-08-03T01:38:10;100294.94;;;17.32;100.00
29935;BME280;19905;53.370;-6.314;2022-08-03T01:40:43;100296.59;;;17.25;100.00
29935;BME280;19905;53.370;-6.314;2022-08-03T01:43:18;100296.06;;;17.46;100.00
29935;BME280;19905;53.370;-6.314;2022-08-03T01:46:10;100295.44;;;17.27;100.00
29935;BME280;19905;53.370;-6.314;2022-08-03T01:48:41;100286.78;;;17.17;100.00
29935;BME280;19905;53.370;-6.314;2022-08-03T01:51:12;100300.66;;;17.05;100.00
29935;BME280;19905;53.370;-6.314;2022-08-03T01:53:50;100308.31;;;16.99;100.00
29935;BME280;19905;53.370;-6.314;2022-08-03T01:56:24;100296.66;;;17.00;100.00
29935;BME280;19905;53.370;-6.314;2022-08-03T01:58:56;100303.97;;;17.07;100.00
29935;BME280;19905;53.370;-6.314;2022-08-03T02:01:30;100297.31;;;17.11;100.00
29935;BME280;19905;53.370;-6.314;2022-08-03T02:04:21;100294.31;;;17.14;100.00
29935;BME280;19905;53.370;-6.314;2022-08-03T02:06:53;100296.97;;;17.06;100.00
29935;BME280;19905;53.370;-6.314;2022-08-03T02:09:31;100298.47;;;17.08;100.00
29935;BME280;19905;53.370;-6.314;2022-08-03T02:12:07;100304.16;;;17.05;100.00
29935;BME280;19905;53.370;-6.314;2022-08-03T02:14:44;100303.47;;;17.03;100.00
29935;BME280;19905;53.370;-6.314;2022-08-03T02:17:17;100312.81;;;17.15;100.00
29935;BME280;19905;53.370;-6.314;2022-08-03T02:20:10;100307.81;;;17.04;100.00
29935;BME280;19905;53.370;-6.314;2022-08-03T02:22:41;100314.84;;;17.05;100.00
29935;BME280;19905;53.370;-6.314;2022-08-03T02:25:12;100313.16;;;17.04;100.00
29935;BME280;19905;53.370;-6.314;2022-08-03T02:27:47;100311.34;;;17.05;100.00
29935;BME280;19905;53.370;-6.314;2022-08-03T02:30:18;100310.31;;;17.06;100.00
29935;BME280;19905;53.370;-6.314;2022-08-03T02:32:53;100317.84;;;17.02;100.00
29935;BME280;19905;53.370;-6.314;2022-08-03T02:35:25;100311.84;;;17.00;100.00
29935;BME280;19905;53.370;-6.314;2022-08-03T02:37:58;100319.50;;;16.95;100.00
29935;BME280;19905;53.370;-6.314;2022-08-03T02:40:50;100326.34;;;16.97;100.00
29935;BME280;19905;53.370;-6.314;2022-08-03T02:43:25;100324.00;;;16.94;100.00
29935;BME280;19905;53.370;-6.314;2022-08-03T02:46:18;100330.66;;;16.90;100.00
29935;BME280;19905;53.370;-6.314;2022-08-03T02:48:51;100319.34;;;16.96;100.00
29935;BME280;19905;53.370;-6.314;2022-08-03T02:51:22;100330.53;;;16.92;100.00
29935;BME280;19905;53.370;-6.314;2022-08-03T02:53:55;100330.50;;;16.84;100.00
29935;BME280;19905;53.370;-6.314;2022-08-03T02:56:27;100326.34;;;16.89;100.00
29935;BME280;19905;53.370;-6.314;2022-08-03T02:59:00;100317.03;;;16.77;100.00
29935;BME280;19905;53.370;-6.314;2022-08-03T03:01:32;100314.50;;;16.75;100.00
29935;BME280;19905;53.370;-6.314;2022-08-03T03:04:04;100309.81;;;16.69;100.00
29935;BME280;19905;53.370;-6.314;2022-08-03T03:06:38;100315.63;;;16.57;100.00
29935;BME280;19905;53.370;-6.314;2022-08-03T03:09:10;100315.63;;;16.57;100.00
29935;BME280;19905;53.370;-6.314;2022-08-03T03:11:41;100321.63;;;16.50;100.00
29935;BME280;19905;53.370;-6.314;2022-08-03T03:14:11;100322.63;;;16.41;100.00
29935;BME280;19905;53.370;-6.314;2022-08-03T03:17:00;100329.09;;;16.39;100.00
29935;BME280;19905;53.370;-6.314;2022-08-03T03:19:38;100327.97;;;16.41;100.00
29935;BME280;19905;53.370;-6.314;2022-08-03T03:22:10;100335.94;;;16.33;100.00
29935;BME280;19905;53.370;-6.314;2022-08-03T03:24:40;100334.78;;;16.36;100.00
29935;BME280;19905;53.370;-6.314;2022-08-03T03:27:10;100326.94;;;16.34;100.00
29935;BME280;19905;53.370;-6.314;2022-08-03T03:29:46;100334.28;;;16.32;100.00
29935;BME280;19905;53.370;-6.314;2022-08-03T03:32:19;100334.63;;;16.45;100.00
29935;BME280;19905;53.370;-6.314;2022-08-03T03:34:50;100333.78;;;16.37;100.00
29935;BME280;19905;53.370;-6.314;2022-08-03T03:37:19;100351.25;;;16.39;100.00
29935;BME280;19905;53.370;-6.314;2022-08-03T03:39:49;100346.97;;;16.46;100.00
29935;BME280;19905;53.370;-6.314;2022-08-03T03:42:19;100348.97;;;16.52;100.00
29935;BME280;19905;53.370;-6.314;2022-08-03T03:44:49;100350.78;;;16.52;100.00
29935;BME280;19905;53.370;-6.314;2022-08-03T03:47:20;100352.44;;;16.53;100.00
29935;BME280;19905;53.370;-6.314;2022-08-03T03:50:01;100357.28;;;16.58;100.00
29935;BME280;19905;53.370;-6.314;2022-08-03T03:52:32;100349.97;;;16.51;100.00
29935;BME280;19905;53.370;-6.314;2022-08-03T03:55:02;100349.75;;;16.29;100.00
29935;BME280;19905;53.370;-6.314;2022-08-03T03:57:33;100351.94;;;16.33;100.00
29935;BME280;19905;53.370;-6.314;2022-08-03T04:00:11;100353.56;;;16.26;100.00
29935;BME280;19905;53.370;-6.314;2022-08-03T04:02:48;100359.06;;;16.24;100.00
29935;BME280;19905;53.370;-6.314;2022-08-03T04:05:20;100371.88;;;16.21;100.00
29935;BME280;19905;53.370;-6.314;2022-08-03T04:08:13;100373.53;;;16.14;100.00
29935;BME280;19905;53.370;-6.314;2022-08-03T04:11:09;100371.69;;;16.14;100.00
29935;BME280;19905;53.370;-6.314;2022-08-03T04:13:42;100367.19;;;16.15;100.00
29935;BME280;19905;53.370;-6.314;2022-08-03T04:16:20;100373.66;;;16.12;100.00
29935;BME280;19905;53.370;-6.314;2022-08-03T04:18:53;100376.84;;;16.16;100.00
29935;BME280;19905;53.370;-6.314;2022-08-03T04:21:28;100366.19;;;16.16;100.00
29935;BME280;19905;53.370;-6.314;2022-08-03T04:24:21;100375.50;;;16.12;100.00
29935;BME280;19905;53.370;-6.314;2022-08-03T04:26:55;100380.84;;;16.12;100.00
29935;BME280;19905;53.370;-6.314;2022-08-03T04:29:29;100386.34;;;16.10;100.00
29935;BME280;19905;53.370;-6.314;2022-08-03T04:32:01;100381.66;;;16.04;100.00
29935;BME280;19905;53.370;-6.314;2022-08-03T04:34:34;100384.16;;;16.06;100.00
29935;BME280;19905;53.370;-6.314;2022-08-03T04:37:34;100393.28;;;16.03;100.00
29935;BME280;19905;53.370;-6.314;2022-08-03T04:40:10;100389.66;;;16.04;100.00
29935;BME280;19905;53.370;-6.314;2022-08-03T04:42:43;100392.97;;;16.06;100.00
29935;BME280;19905;53.370;-6.314;2022-08-03T04:45:14;100387.81;;;16.05;100.00
29935;BME280;19905;53.370;-6.314;2022-08-03T04:47:44;100399.31;;;16.05;100.00
29935;BME280;19905;53.370;-6.314;2022-08-03T04:50:16;100404.28;;;16.00;100.00
29935;BME280;19905;53.370;-6.314;2022-08-03T04:52:50;100410.28;;;16.02;100.00
29935;BME280;19905;53.370;-6.314;2022-08-03T04:55:31;100413.59;;;15.96;100.00
29935;BME280;19905;53.370;-6.314;2022-08-03T04:58:02;100420.06;;;15.93;100.00
29935;BME280;19905;53.370;-6.314;2022-08-03T05:00:45;100422.84;;;15.84;100.00
29935;BME280;19905;53.370;-6.314;2022-08-03T05:03:19;100431.44;;;15.51;100.00
29935;BME280;19905;53.370;-6.314;2022-08-03T05:05:56;100422.06;;;15.47;100.00
29935;BME280;19905;53.370;-6.314;2022-08-03T05:08:41;100427.41;;;15.47;100.00
29935;BME280;19905;53.370;-6.314;2022-08-03T05:11:13;100427.56;;;15.46;100.00
29935;BME280;19905;53.370;-6.314;2022-08-03T05:13:43;100452.72;;;15.51;100.00
29935;BME280;19905;53.370;-6.314;2022-08-03T05:16:19;100440.50;;;15.41;100.00
29935;BME280;19905;53.370;-6.314;2022-08-03T05:18:49;100453.91;;;15.31;100.00
29935;BME280;19905;53.370;-6.314;2022-08-03T05:21:18;100456.47;;;15.41;100.00
29935;BME280;19905;53.370;-6.314;2022-08-03T05:23:50;100452.63;;;15.35;100.00
29935;BME280;19905;53.370;-6.314;2022-08-03T05:26:20;100466.88;;;15.34;100.00
29935;BME280;19905;53.370;-6.314;2022-08-03T05:28:54;100464.19;;;15.26;100.00
29935;BME280;19905;53.370;-6.314;2022-08-03T05:31:24;100466.88;;;15.34;100.00
29935;BME280;19905;53.370;-6.314;2022-08-03T05:33:53;100475.50;;;15.28;100.00
29935;BME280;19905;53.370;-6.314;2022-08-03T05:36:23;100467.13;;;15.41;100.00
29935;BME280;19905;53.370;-6.314;2022-08-03T05:39:08;100469.16;;;15.47;100.00
29935;BME280;19905;53.370;-6.314;2022-08-03T05:41:37;100479.34;;;15.51;100.00
29935;BME280;19905;53.370;-6.314;2022-08-03T05:44:09;100474.38;;;15.57;100.00
29935;BME280;19905;53.370;-6.314;2022-08-03T05:46:38;100472.81;;;15.64;100.00
29935;BME280;19905;53.370;-6.314;2022-08-03T05:49:09;100475.84;;;15.69;100.00
29935;BME280;19905;53.370;-6.314;2022-08-03T05:51:44;100486.34;;;15.70;100.00
29935;BME280;19905;53.370;-6.314;2022-08-03T05:54:35;100473.84;;;15.71;100.00
29935;BME280;19905;53.370;-6.314;2022-08-03T05:57:30;100484.19;;;15.74;100.00
29935;BME280;19905;53.370;-6.314;2022-08-03T06:00:04;100491.28;;;15.65;100.00
29935;BME280;19905;53.370;-6.314;2022-08-03T06:02:37;100492.66;;;15.51;100.00
29935;BME280;19905;53.370;-6.314;2022-08-03T06:05:09;100496.41;;;15.41;100.00
29935;BME280;19905;53.370;-6.314;2022-08-03T06:07:38;100501.13;;;15.29;100.00
29935;BME280;19905;53.370;-6.314;2022-08-03T06:10:10;100504.22;;;15.24;100.00
29935;BME280;19905;53.370;-6.314;2022-08-03T06:13:01;100512.59;;;15.30;100.00
29935;BME280;19905;53.370;-6.314;2022-08-03T06:15:37;100515.13;;;15.31;100.00
29935;BME280;19905;53.370;-6.314;2022-08-03T06:18:05;100516.78;;;15.32;100.00
29935;BME280;19905;53.370;-6.314;2022-08-03T06:20:35;100515.78;;;15.33;100.00
29935;BME280;19905;53.370;-6.314;2022-08-03T06:23:39;100519.66;;;15.39;100.00
29935;BME280;19905;53.370;-6.314;2022-08-03T06:26:26;100508.25;;;15.46;100.00
29935;BME280;19905;53.370;-6.314;2022-08-03T06:28:55;100507.78;;;15.51;100.00
29935;BME280;19905;53.370;-6.314;2022-08-03T06:31:26;100504.50;;;15.57;100.00
29935;BME280;19905;53.370;-6.314;2022-08-03T06:34:02;100500.53;;;15.61;100.00
29935;BME280;19905;53.370;-6.314;2022-08-03T06:37:07;100502.63;;;15.67;100.00
29935;BME280;19905;53.370;-6.314;2022-08-03T06:39:35;100485.47;;;15.88;100.00
29935;BME280;19905;53.370;-6.314;2022-08-03T06:42:05;100483.16;;;15.93;100.00
29935;BME280;19905;53.370;-6.314;2022-08-03T06:44:55;100489.25;;;16.11;100.00
29935;BME280;19905;53.370;-6.314;2022-08-03T06:47:25;100496.63;;;16.17;100.00
29935;BME280;19905;53.370;-6.314;2022-08-03T06:49:53;100493.75;;;16.11;100.00
29935;BME280;19905;53.370;-6.314;2022-08-03T06:52:39;100488.25;;;16.12;100.00
29935;BME280;19905;53.370;-6.314;2022-08-03T06:55:10;100476.16;;;16.18;100.00
29935;BME280;19905;53.370;-6.314;2022-08-03T06:57:40;100491.69;;;16.31;100.00
29935;BME280;19905;53.370;-6.314;2022-08-03T07:00:10;100478.00;;;16.25;100.00
29935;BME280;19905;53.370;-6.314;2022-08-03T07:02:59;100479.69;;;16.35;100.00
29935;BME280;19905;53.370;-6.314;2022-08-03T07:05:27;100486.03;;;16.34;100.00
29935;BME280;19905;53.370;-6.314;2022-08-03T07:07:56;100474.38;;;16.35;100.00
29935;BME280;19905;53.370;-6.314;2022-08-03T07:10:27;100481.66;;;16.59;100.00
29935;BME280;19905;53.370;-6.314;2022-08-03T07:12:58;100477.56;;;16.72;100.00
29935;BME280;19905;53.370;-6.314;2022-08-03T07:15:26;100472.31;;;16.63;100.00
29935;BME280;19905;53.370;-6.314;2022-08-03T07:18:17;100469.22;;;16.75;100.00
29935;BME280;19905;53.370;-6.314;2022-08-03T07:20:55;100466.03;;;16.72;100.00
29935;BME280;19905;53.370;-6.314;2022-08-03T07:23:24;100466.88;;;16.81;100.00
29935;BME280;19905;53.370;-6.314;2022-08-03T07:25:52;100477.25;;;16.92;100.00
29935;BME280;19905;53.370;-6.314;2022-08-03T07:28:22;100472.13;;;17.15;100.00
29935;BME280;19905;53.370;-6.314;2022-08-03T07:30:51;100464.44;;;17.12;100.00
29935;BME280;19905;53.370;-6.314;2022-08-03T07:33:19;100465.94;;;17.31;100.00
29935;BME280;19905;53.370;-6.314;2022-08-03T07:35:47;100451.59;;;17.23;100.00
29935;BME280;19905;53.370;-6.314;2022-08-03T07:38:18;100464.78;;;17.00;100.00
29935;BME280;19905;53.370;-6.314;2022-08-03T07:40:47;100468.91;;;16.95;100.00
29935;BME280;19905;53.370;-6.314;2022-08-03T07:43:15;100478.59;;;17.12;100.00
29935;BME280;19905;53.370;-6.314;2022-08-03T07:45:46;100478.78;;;17.11;100.00
29935;BME280;19905;53.370;-6.314;2022-08-03T07:48:34;100464.78;;;17.00;100.00
29935;BME280;19905;53.370;-6.314;2022-08-03T07:51:04;100482.59;;;17.08;100.00
29935;BME280;19905;53.370;-6.314;2022-08-03T07:53:33;100479.78;;;17.26;100.00
29935;BME280;19905;53.370;-6.314;2022-08-03T07:56:13;100481.44;;;17.27;100.00
29935;BME280;19905;53.370;-6.314;2022-08-03T07:58:42;100477.97;;;17.35;100.00
29935;BME280;19905;53.370;-6.314;2022-08-03T08:01:12;100496.66;;;17.35;100.00
29935;BME280;19905;53.370;-6.314;2022-08-03T08:03:41;100494.97;;;17.25;100.00
29935;BME280;19905;53.370;-6.314;2022-08-03T08:06:20;100492.97;;;17.19;100.00
29935;BME280;19905;53.370;-6.314;2022-08-03T08:08:49;100479.63;;;17.19;100.00
29935;BME280;19905;53.370;-6.314;2022-08-03T08:11:18;100483.13;;;17.12;100.00
29935;BME280;19905;53.370;-6.314;2022-08-03T08:13:48;100490.47;;;17.10;100.00
29935;BME280;19905;53.370;-6.314;2022-08-03T08:16:23;100494.31;;;17.15;100.00
29935;BME280;19905;53.370;-6.314;2022-08-03T08:18:51;100497.81;;;17.16;100.00
29935;BME280;19905;53.370;-6.314;2022-08-03T08:21:21;100503.00;;;17.42;100.00
29935;BME280;19905;53.370;-6.314;2022-08-03T08:23:53;100491.63;;;17.48;100.00
29935;BME280;19905;53.370;-6.314;2022-08-03T08:26:24;100481.78;;;17.57;100.00
29935;BME280;19905;53.370;-6.314;2022-08-03T08:28:53;100488.47;;;17.61;100.00
29935;BME280;19905;53.370;-6.314;2022-08-03T08:31:23;100486.44;;;17.54;100.00
29935;BME280;19905;53.370;-6.314;2022-08-03T08:33:53;100487.97;;;17.49;100.00
29935;BME280;19905;53.370;-6.314;2022-08-03T08:36:31;100479.13;;;17.40;100.00
29935;BME280;19905;53.370;-6.314;2022-08-03T08:39:00;100493.66;;;17.38;100.00
29935;BME280;19905;53.370;-6.314;2022-08-03T08:41:29;100498.16;;;17.37;100.00
29935;BME280;19905;53.370;-6.314;2022-08-03T08:44:01;100498.81;;;17.47;100.00
29935;BME280;19905;53.370;-6.314;2022-08-03T08:46:32;100494.28;;;17.72;100.00
29935;BME280;19905;53.370;-6.314;2022-08-03T08:49:00;100492.13;;;17.68;100.00
29935;BME280;19905;53.370;-6.314;2022-08-03T08:51:50;100489.47;;;17.84;100.00
29935;BME280;19905;53.370;-6.314;2022-08-03T08:54:28;100471.72;;;17.99;100.00
29935;BME280;19905;53.370;-6.314;2022-08-03T08:57:01;100481.56;;;18.15;100.00
29935;BME280;19905;53.370;-6.314;2022-08-03T08:59:50;100477.34;;;18.21;100.00
29935;BME280;19905;53.370;-6.314;2022-08-03T09:02:26;100495.22;;;18.28;100.00
29935;BME280;19905;53.370;-6.314;2022-08-03T09:04:57;100491.97;;;18.41;100.00
29935;BME280;19905;53.370;-6.314;2022-08-03T09:07:33;100485.47;;;18.36;100.00
29935;BME280;19905;53.370;-6.314;2022-08-03T09:10:01;100494.91;;;18.15;100.00
29935;BME280;19905;53.370;-6.314;2022-08-03T09:12:41;100499.66;;;17.89;100.00
29935;BME280;19905;53.370;-6.314;2022-08-03T09:15:18;100510.84;;;17.76;100.00
29935;BME280;19905;53.370;-6.314;2022-08-03T09:17:50;100516.34;;;17.50;100.00
29935;BME280;19905;53.370;-6.314;2022-08-03T09:20:21;100513.19;;;17.46;100.00
29935;BME280;19905;53.370;-6.314;2022-08-03T09:22:54;100522.53;;;17.42;100.00
29935;BME280;19905;53.370;-6.314;2022-08-03T09:25:29;100522.34;;;17.44;100.00
29935;BME280;19905;53.370;-6.314;2022-08-03T09:28:07;100532.03;;;17.37;100.00
29935;BME280;19905;53.370;-6.314;2022-08-03T09:31:16;100513.53;;;17.60;100.00
29935;BME280;19905;53.370;-6.314;2022-08-03T09:33:53;100552.06;;;17.65;100.00
29935;BME280;19905;53.370;-6.314;2022-08-03T09:36:37;100526.69;;;17.69;100.00
29935;BME280;19905;53.370;-6.314;2022-08-03T09:39:08;100532.56;;;17.89;100.00
29935;BME280;19905;53.370;-6.314;2022-08-03T09:41:39;100523.03;;;17.87;100.00
29935;BME280;19905;53.370;-6.314;2022-08-03T09:44:10;100526.88;;;17.92;100.00
29935;BME280;19905;53.370;-6.314;2022-08-03T09:46:53;100505.31;;;18.02;100.00
29935;BME280;19905;53.370;-6.314;2022-08-03T09:49:40;100529.56;;;17.76;100.00
29935;BME280;19905;53.370;-6.314;2022-08-03T09:52:14;100503.47;;;18.02;100.00
29935;BME280;19905;53.370;-6.314;2022-08-03T09:54:59;100527.50;;;18.11;100.00
29935;BME280;19905;53.370;-6.314;2022-08-03T09:57:29;100508.91;;;18.25;100.00
29935;BME280;19905;53.370;-6.314;2022-08-03T10:00:06;100516.84;;;18.02;100.00
29935;BME280;19905;53.370;-6.314;2022-08-03T10:02:38;100511.47;;;18.02;100.00
29935;BME280;19905;53.370;-6.314;2022-08-03T10:05:11;100512.00;;;17.98;100.00
29935;BME280;19905;53.370;-6.314;2022-08-03T10:07:47;100513.25;;;18.26;100.00
29935;BME280;19905;53.370;-6.314;2022-08-03T10:10:17;100507.25;;;18.33;100.00
29935;BME280;19905;53.370;-6.314;2022-08-03T10:12:59;100499.75;;;18.59;100.00
29935;BME280;19905;53.370;-6.314;2022-08-03T10:15:27;100514.84;;;18.52;100.00
29935;BME280;19905;53.370;-6.314;2022-08-03T10:18:16;100509.66;;;18.50;100.00
29935;BME280;19905;53.370;-6.314;2022-08-03T10:21:12;100502.16;;;18.85;100.00
29935;BME280;19905;53.370;-6.314;2022-08-03T10:23:45;100492.97;;;18.88;100.00
29935;BME280;19905;53.370;-6.314;2022-08-03T10:26:17;100504.53;;;18.80;100.00
29935;BME280;19905;53.370;-6.314;2022-08-03T10:28:52;100497.56;;;18.63;100.00
29935;BME280;19905;53.370;-6.314;2022-08-03T10:31:22;100511.69;;;18.48;100.00
29935;BME280;19905;53.370;-6.314;2022-08-03T10:33:55;100511.59;;;18.73;100.00
29935;BME280;19905;53.370;-6.314;2022-08-03T10:36:31;100507.25;;;19.03;100.00
29935;BME280;19905;53.370;-6.314;2022-08-03T10:39:02;100503.28;;;19.22;100.00
29935;BME280;19905;53.370;-6.314;2022-08-03T10:41:42;100499.63;;;19.15;100.00
29935;BME280;19905;53.370;-6.314;2022-08-03T10:44:18;100501.22;;;19.01;100.00
29935;BME280;19905;53.370;-6.314;2022-08-03T10:46:47;100505.22;;;19.05;100.00
29935;BME280;19905;53.370;-6.314;2022-08-03T10:49:18;100510.53;;;19.13;100.00
29935;BME280;19905;53.370;-6.314;2022-08-03T10:52:03;100516.81;;;18.97;100.00
29935;BME280;19905;53.370;-6.314;2022-08-03T10:54:59;100513.19;;;19.13;100.00
29935;BME280;19905;53.370;-6.314;2022-08-03T10:57:50;100515.88;;;19.13;100.00
29935;BME280;19905;53.370;-6.314;2022-08-03T11:00:26;100514.44;;;19.02;100.00
29935;BME280;19905;53.370;-6.314;2022-08-03T11:03:08;100515.03;;;19.13;100.00
29935;BME280;19905;53.370;-6.314;2022-08-03T11:05:41;100512.03;;;19.16;100.00
29935;BME280;19905;53.370;-6.314;2022-08-03T11:08:19;100502.47;;;19.59;100.00
29935;BME280;19905;53.370;-6.314;2022-08-03T11:10:49;100505.97;;;19.97;100.00
29935;BME280;19905;53.370;-6.314;2022-08-03T11:13:20;100494.53;;;20.33;100.00
29935;BME280;19905;53.370;-6.314;2022-08-03T11:15:53;100494.53;;;20.33;100.00
29935;BME280;19905;53.370;-6.314;2022-08-03T11:18:29;100502.28;;;20.28;100.00
29935;BME280;19905;53.370;-6.314;2022-08-03T11:20:58;100490.72;;;20.72;100.00
29935;BME280;19905;53.370;-6.314;2022-08-03T11:23:43;100493.97;;;20.67;100.00
29935;BME280;19905;53.370;-6.314;2022-08-03T11:26:32;100503.88;;;20.67;100.00
29935;BME280;19905;53.370;-6.314;2022-08-03T11:29:25;100501.84;;;20.39;100.00
29935;BME280;19905;53.370;-6.314;2022-08-03T11:31:55;100497.38;;;20.76;100.00
29935;BME280;19905;53.370;-6.314;2022-08-03T11:34:24;100498.03;;;20.34;100.00
29935;BME280;19905;53.370;-6.314;2022-08-03T11:37:22;100505.78;;;20.43;100.00
29935;BME280;19905;53.370;-6.314;2022-08-03T11:39:59;100498.63;;;20.59;100.00
29935;BME280;19905;53.370;-6.314;2022-08-03T11:42:41;100548.00;;;20.64;100.00
29935;BME280;19905;53.370;-6.314;2022-08-03T11:45:14;100500.16;;;20.38;100.00
29935;BME280;19905;53.370;-6.314;2022-08-03T11:47:47;100502.78;;;20.17;100.00
29935;BME280;19905;53.370;-6.314;2022-08-03T11:50:36;100530.69;;;20.37;100.00
29935;BME280;19905;53.370;-6.314;2022-08-03T11:53:06;100512.75;;;20.38;100.00
29935;BME280;19905;53.370;-6.314;2022-08-03T11:55:36;100502.22;;;20.51;100.00
29935;BME280;19905;53.370;-6.314;2022-08-03T11:58:09;100499.25;;;20.46;100.00
29935;BME280;19905;53.370;-6.314;2022-08-03T12:01:06;100498.69;;;19.91;100.00
29935;BME280;19905;53.370;-6.314;2022-08-03T12:03:38;100526.56;;;20.35;100.00
29935;BME280;19905;53.370;-6.314;2022-08-03T12:06:08;100493.88;;;20.46;100.00
29935;BME280;19905;53.370;-6.314;2022-08-03T12:08:57;100496.19;;;20.64;100.00
29935;BME280;19905;53.370;-6.314;2022-08-03T12:11:27;100504.78;;;20.74;100.00
29935;BME280;19905;53.370;-6.314;2022-08-03T12:13:57;100517.75;;;21.28;100.00
29935;BME280;19905;53.370;-6.314;2022-08-03T12:16:46;100516.41;;;21.81;100.00
29935;BME280;19905;53.370;-6.314;2022-08-03T12:19:15;100532.31;;;21.34;100.00
29935;BME280;19905;53.370;-6.314;2022-08-03T12:21:45;100526.03;;;20.90;100.00
29935;BME280;19905;53.370;-6.314;2022-08-03T12:24:23;100530.06;;;20.50;100.00
29935;BME280;19905;53.370;-6.314;2022-08-03T12:26:55;100542.81;;;20.33;100.00
29935;BME280;19905;53.370;-6.314;2022-08-03T12:29:26;100550.72;;;20.49;100.00
29935;BME280;19905;53.370;-6.314;2022-08-03T12:31:55;100541.78;;;20.78;100.00
29935;BME280;19905;53.370;-6.314;2022-08-03T12:34:23;100550.38;;;21.03;100.00
29935;BME280;19905;53.370;-6.314;2022-08-03T12:37:13;100540.28;;;21.48;100.00
29935;BME280;19905;53.370;-6.314;2022-08-03T12:39:49;100544.22;;;21.67;100.00
29935;BME280;19905;53.370;-6.314;2022-08-03T12:42:34;100538.50;;;21.77;100.00
29935;BME280;19905;53.370;-6.314;2022-08-03T12:45:20;100549.84;;;21.15;100.00
29935;BME280;19905;53.370;-6.314;2022-08-03T12:47:51;100532.41;;;21.25;100.00
29935;BME280;19905;53.370;-6.314;2022-08-03T12:50:25;100552.69;;;21.28;100.00
29935;BME280;19905;53.370;-6.314;2022-08-03T12:52:54;100550.50;;;21.17;100.00
29935;BME280;19905;53.370;-6.314;2022-08-03T12:55:25;100560.13;;;20.45;100.00
29935;BME280;19905;53.370;-6.314;2022-08-03T12:58:30;100576.78;;;20.41;100.00
29935;BME280;19905;53.370;-6.314;2022-08-03T13:01:02;100584.03;;;20.02;100.00
29935;BME280;19905;53.370;-6.314;2022-08-03T13:03:40;100589.31;;;19.73;100.00
29935;BME280;19905;53.370;-6.314;2022-08-03T13:06:16;100604.19;;;19.21;100.00
29935;BME280;19905;53.370;-6.314;2022-08-03T13:08:45;100624.59;;;19.22;100.00
29935;BME280;19905;53.370;-6.314;2022-08-03T13:11:22;100617.59;;;19.21;100.00
29935;BME280;19905;53.370;-6.314;2022-08-03T13:14:13;100627.59;;;19.27;100.00